createdAt,value
2022-09-15T00:01:03.931Z,15.15
2022-09-15T00:03:30.596Z,15.32
2022-09-15T00:05:57.219Z,15.38
2022-09-15T00:08:24.905Z,15.87
2022-09-15T00:11:06.452Z,15.54
2022-09-15T05:44:02.056Z,12.78
2022-09-15T05:46:29.276Z,12.48
2022-09-15T05:48:58.494Z,12.51
2022-09-15T05:51:25.383Z,13.04
2022-09-15T05:53:52.186Z,12.81
2022-09-15T05:58:54.411Z,12.28
2022-09-15T06:01:27.690Z,12.51
2022-09-15T06:03:56.018Z,12.92
2022-09-15T06:06:23.778Z,12.89
2022-09-15T06:08:58.058Z,12.66
2022-09-15T06:11:33.769Z,12.94
2022-09-15T06:14:03.050Z,13.34
2022-09-15T06:16:34.107Z,13.48
2022-09-15T06:19:01.344Z,13.24
2022-09-15T06:21:30.619Z,13.29
2022-09-15T06:24:00.134Z,12.90
2022-09-15T06:26:27.878Z,12.88
2022-09-15T06:29:00.885Z,12.67
2022-09-15T06:31:30.165Z,12.51
2022-09-15T06:33:57.937Z,13.09
2022-09-15T06:36:28.460Z,12.77
2022-09-15T06:38:55.625Z,12.33
2022-09-15T06:41:22.672Z,12.80
2022-09-15T06:43:49.610Z,13.10
2022-09-15T06:46:20.703Z,13.62
2022-09-15T06:48:48.672Z,12.98
2022-09-15T06:51:17.802Z,12.77
2022-09-15T06:53:45.548Z,13.33
2022-09-15T06:56:16.293Z,13.28
2022-09-15T06:58:44.138Z,13.09
2022-09-15T07:01:20.329Z,13.42
2022-09-15T07:03:47.565Z,13.58
2022-09-15T07:06:14.748Z,13.51
2022-09-15T07:08:41.784Z,13.49
2022-09-15T07:11:10.157Z,13.27
2022-09-15T07:13:37.469Z,14.54
2022-09-15T07:16:07.164Z,14.99
2022-09-15T07:18:36.046Z,14.15
2022-09-15T07:21:11.646Z,13.75
2022-09-15T07:23:38.580Z,14.02
2022-09-15T07:26:05.968Z,14.27
2022-09-15T07:28:33.494Z,13.69
2022-09-15T07:31:00.252Z,14.69
2022-09-15T07:33:26.920Z,14.25
2022-09-15T07:35:53.563Z,14.19
2022-09-15T07:38:20.213Z,14.05
2022-09-15T07:40:47.044Z,14.41
2022-09-15T07:43:13.670Z,14.29
2022-09-15T07:45:40.751Z,14.44
2022-09-15T07:48:07.465Z,14.01
2022-09-15T07:50:34.284Z,14.84
2022-09-15T07:53:01.122Z,15.16
2022-09-15T07:55:28.219Z,15.35
2022-09-15T07:58:03.337Z,14.57
2022-09-15T08:00:30.087Z,14.53
2022-09-15T08:02:57.058Z,14.27
2022-09-15T08:05:28.473Z,14.30
2022-09-15T08:07:56.223Z,14.34
2022-09-15T08:10:25.200Z,13.59
2022-09-15T08:12:52.971Z,13.46
2022-09-15T08:15:20.284Z,14.07
2022-09-15T08:17:47.113Z,14.43
2022-09-15T08:20:14.328Z,14.28
2022-09-15T08:22:42.148Z,13.90
2022-09-15T08:25:09.460Z,13.86
2022-09-15T08:27:36.074Z,13.94
2022-09-15T08:30:03.101Z,14.36
2022-09-15T08:32:30.012Z,13.83
2022-09-15T08:34:56.861Z,13.81
2022-09-15T08:37:23.478Z,14.50
2022-09-15T08:39:50.287Z,14.58
2022-09-15T08:42:20.489Z,15.18
2022-09-15T08:45:01.741Z,15.49
2022-09-15T08:47:35.795Z,15.23
2022-09-15T08:50:22.984Z,15.08
2022-09-15T08:52:53.201Z,15.54
2022-09-15T08:55:54.121Z,16.12
2022-09-15T08:58:28.186Z,16.93
2022-09-15T09:01:25.611Z,16.35
2022-09-15T09:04:07.194Z,16.33
2022-09-15T09:07:19.050Z,15.81
2022-09-15T09:09:57.346Z,15.39
2022-09-15T09:12:57.742Z,16.37
2022-09-15T09:15:56.208Z,16.14
2022-09-15T09:19:15.208Z,15.82
2022-09-15T09:21:48.235Z,15.94
2022-09-15T09:24:47.014Z,15.66
2022-09-15T09:27:21.702Z,15.91
2022-09-15T09:30:10.858Z,15.19
2022-09-15T09:33:18.614Z,15.37
2022-09-15T09:35:50.032Z,15.71
2022-09-15T09:38:25.539Z,15.51
2022-09-15T09:40:53.043Z,15.85
2022-09-15T09:43:20.240Z,16.24
2022-09-15T09:45:47.056Z,16.64
2022-09-15T09:48:27.426Z,16.07
2022-09-15T09:50:55.175Z,15.73
2022-09-15T09:53:33.533Z,16.61
2022-09-15T09:56:26.924Z,17.15
2022-09-15T09:58:54.840Z,17.60
2022-09-15T10:01:25.764Z,18.28
2022-09-15T10:04:19.490Z,17.19
2022-09-15T10:06:46.694Z,17.70
2022-09-15T10:09:19.263Z,17.76
2022-09-15T10:11:56.413Z,17.00
2022-09-15T10:14:27.744Z,16.51
2022-09-15T10:17:04.904Z,16.87
2022-09-15T10:19:36.606Z,16.67
2022-09-15T10:22:04.706Z,16.67
2022-09-15T10:24:39.758Z,17.07
2022-09-15T10:27:19.921Z,16.61
2022-09-15T10:29:47.736Z,16.38
2022-09-15T10:32:30.156Z,15.87
2022-09-15T10:35:18.602Z,16.30
2022-09-15T10:38:12.342Z,16.09
2022-09-15T10:41:03.391Z,15.96
2022-09-15T10:44:12.937Z,16.34
2022-09-15T10:47:20.783Z,16.40
2022-09-15T10:50:02.972Z,16.06
2022-09-15T10:53:06.029Z,16.16
2022-09-15T10:55:54.873Z,16.14
2022-09-15T10:59:17.816Z,16.13
2022-09-15T11:02:10.475Z,16.89
2022-09-15T11:04:44.742Z,16.05
2022-09-15T11:08:00.891Z,16.29
2022-09-15T11:10:56.853Z,17.07
2022-09-15T11:14:00.847Z,17.75
2022-09-15T11:16:38.732Z,17.97
2022-09-15T11:19:30.055Z,18.05
2022-09-15T11:22:15.668Z,17.18
2022-09-15T11:24:53.090Z,17.30
2022-09-15T11:27:25.412Z,17.26
2022-09-15T11:30:24.303Z,17.72
2022-09-15T11:33:21.028Z,16.84
2022-09-15T11:36:08.753Z,16.31
2022-09-15T11:38:57.605Z,16.13
2022-09-15T11:42:01.030Z,16.34
2022-09-15T11:44:39.670Z,16.53
2022-09-15T11:47:38.701Z,16.99
2022-09-15T11:50:11.440Z,17.28
2022-09-15T11:52:51.928Z,16.71
2022-09-15T11:55:28.601Z,16.88
2022-09-15T11:58:51.659Z,16.59
2022-09-15T12:01:52.436Z,16.61
2022-09-15T12:05:25.846Z,16.95
2022-09-15T12:07:58.725Z,16.74
2022-09-15T12:10:42.501Z,17.15
2022-09-15T12:13:17.932Z,16.74
2022-09-15T12:15:47.614Z,16.68
2022-09-15T12:18:41.038Z,16.69
2022-09-15T12:21:26.896Z,16.57
2022-09-15T12:24:17.247Z,16.16
2022-09-15T12:26:46.660Z,16.56
2022-09-15T12:29:22.411Z,16.72
2022-09-15T12:32:09.806Z,16.84
2022-09-15T12:34:38.688Z,17.19
2022-09-15T12:37:15.220Z,17.25
2022-09-15T12:39:46.969Z,16.72
2022-09-15T12:42:33.701Z,16.90
2022-09-15T12:45:19.835Z,17.33
2022-09-15T12:47:57.529Z,17.76
2022-09-15T12:50:38.040Z,18.09
2022-09-15T12:53:26.501Z,18.37
2022-09-15T12:56:31.175Z,18.24
2022-09-15T12:59:07.726Z,17.51
2022-09-15T13:01:43.502Z,16.88
2022-09-15T13:04:12.083Z,17.14
2022-09-15T13:06:38.845Z,16.89
2022-09-15T13:09:05.706Z,17.23
2022-09-15T13:11:37.388Z,17.68
2022-09-15T13:14:04.260Z,17.15
2022-09-15T13:17:01.044Z,17.27
2022-09-15T13:19:35.808Z,17.51
2022-09-15T13:22:29.960Z,18.16
2022-09-15T13:25:19.630Z,17.35
2022-09-15T13:28:02.516Z,16.34
2022-09-15T13:31:29.730Z,17.41
2022-09-15T13:41:13.676Z,16.51
2022-09-15T13:44:16.785Z,17.58
2022-09-15T13:47:31.575Z,17.46
2022-09-15T13:50:23.483Z,17.35
2022-09-15T13:53:27.140Z,17.64
2022-09-15T13:55:55.553Z,17.18
2022-09-15T14:01:14.285Z,16.76
2022-09-15T14:03:54.920Z,16.52
2022-09-15T14:06:30.287Z,16.29
2022-09-15T14:09:01.794Z,16.42
2022-09-15T14:11:32.345Z,16.53
2022-09-15T14:14:00.872Z,16.44
2022-09-15T14:16:27.926Z,16.62
2022-09-15T14:18:57.882Z,16.15
2022-09-15T14:21:31.073Z,16.45
2022-09-15T14:24:05.681Z,16.35
2022-09-15T14:26:35.818Z,16.50
2022-09-15T14:29:06.277Z,16.62
2022-09-15T14:31:34.549Z,16.61
2022-09-15T14:34:05.254Z,17.11
2022-09-15T14:36:33.823Z,17.83
2022-09-15T14:39:26.763Z,17.27
2022-09-15T14:41:53.747Z,17.16
2022-09-15T14:47:27.898Z,17.85
2022-09-15T14:50:20.084Z,17.59
2022-09-15T14:52:51.777Z,17.93
2022-09-15T14:55:26.739Z,18.16
2022-09-15T14:58:20.125Z,18.05
2022-09-15T15:01:32.739Z,17.08
2022-09-15T15:04:26.144Z,16.21
2022-09-15T15:07:09.558Z,15.91
2022-09-15T15:09:51.881Z,15.73
2022-09-15T15:12:44.151Z,15.74
2022-09-15T15:15:13.587Z,15.66
2022-09-15T15:17:49.757Z,15.41
2022-09-15T15:20:27.016Z,14.65
2022-09-15T15:23:25.817Z,14.12
2022-09-15T15:25:53.911Z,13.95
2022-09-15T15:28:37.714Z,13.81
2022-09-15T15:31:22.070Z,13.60
2022-09-15T15:34:08.080Z,13.89
2022-09-15T15:36:36.481Z,14.46
2022-09-15T15:39:07.844Z,14.94
2022-09-15T15:41:41.006Z,15.41
2022-09-15T15:44:13.832Z,15.86
2022-09-15T15:46:54.241Z,15.01
2022-09-15T15:49:25.956Z,14.77
2022-09-15T15:51:58.264Z,14.90
2022-09-15T15:54:25.809Z,15.15
2022-09-15T15:56:53.606Z,15.51
2022-09-15T15:59:20.918Z,16.31
2022-09-15T16:01:52.907Z,15.28
2022-09-15T16:04:19.810Z,15.62
2022-09-15T16:06:47.564Z,14.55
2022-09-15T16:09:17.227Z,14.11
2022-09-15T16:11:44.016Z,13.48
2022-09-15T16:14:14.235Z,13.88
2022-09-15T16:16:40.998Z,13.75
2022-09-15T16:19:15.855Z,12.90
2022-09-15T16:21:42.849Z,12.98
2022-09-15T16:24:15.508Z,13.21
2022-09-15T16:26:43.461Z,12.72
2022-09-15T16:29:10.249Z,13.46
2022-09-15T16:31:37.541Z,13.75
2022-09-15T16:34:04.307Z,13.95
2022-09-15T16:36:34.649Z,15.43
2022-09-15T16:39:01.261Z,15.00
2022-09-15T16:41:27.978Z,15.37
2022-09-15T16:43:55.904Z,15.82
2022-09-15T16:46:22.772Z,16.81
2022-09-15T16:48:49.639Z,16.46
2022-09-15T16:51:29.841Z,16.01
2022-09-15T16:53:58.130Z,15.96
2022-09-15T16:56:24.789Z,14.97
2022-09-15T16:58:58.860Z,14.94
2022-09-15T17:01:26.759Z,15.23
2022-09-15T17:03:54.641Z,15.34
2022-09-15T17:06:22.026Z,15.32
2022-09-15T17:08:49.062Z,14.84
2022-09-15T17:11:19.243Z,14.39
2022-09-15T17:13:46.828Z,14.18
2022-09-15T17:16:17.624Z,13.59
2022-09-15T17:18:44.292Z,13.17
2022-09-15T17:21:17.146Z,12.86
2022-09-15T17:23:47.335Z,12.53
2022-09-15T17:26:20.099Z,12.70
2022-09-15T17:28:47.438Z,12.64
2022-09-15T17:31:16.952Z,12.73
2022-09-15T17:33:45.178Z,12.61
2022-09-15T17:36:12.697Z,12.66
2022-09-15T17:38:42.510Z,13.10
2022-09-15T17:41:20.517Z,12.99
2022-09-15T17:43:47.528Z,13.14
2022-09-15T17:46:14.529Z,12.84
2022-09-15T17:48:41.311Z,12.68
2022-09-15T17:51:14.238Z,12.73
2022-09-15T17:53:40.852Z,12.80
2022-09-15T17:56:07.770Z,12.80
2022-09-15T17:58:34.483Z,12.86
2022-09-15T18:01:01.270Z,13.12
2022-09-15T18:03:34.633Z,13.75
2022-09-15T18:06:06.262Z,13.73
2022-09-15T18:08:34.225Z,13.79
2022-09-15T18:11:01.477Z,13.38
2022-09-15T18:13:30.094Z,13.33
2022-09-15T18:15:58.034Z,13.20
2022-09-15T18:18:27.889Z,13.37
2022-09-15T18:20:57.963Z,13.84
2022-09-15T18:23:30.840Z,13.21
2022-09-15T18:25:57.993Z,12.93
2022-09-15T18:28:24.744Z,12.85
2022-09-15T18:30:52.226Z,13.34
2022-09-15T18:33:25.341Z,13.32
2022-09-15T18:35:56.003Z,13.00
2022-09-15T18:38:23.584Z,13.26
2022-09-15T18:40:54.027Z,13.35
2022-09-15T18:43:22.353Z,13.46
2022-09-15T18:45:50.215Z,13.51
2022-09-15T18:48:17.538Z,13.56
2022-09-15T18:50:45.465Z,13.40
2022-09-15T18:53:12.497Z,13.51
2022-09-15T18:55:44.788Z,13.61
2022-09-15T18:58:12.704Z,13.73
2022-09-15T19:00:40.071Z,13.58
2022-09-15T19:03:11.560Z,13.78
2022-09-15T19:05:38.593Z,13.78
2022-09-15T19:08:05.507Z,13.93
2022-09-15T19:10:32.507Z,13.95
2022-09-15T19:12:59.305Z,13.98
2022-09-15T19:15:25.907Z,13.31
2022-09-15T19:17:52.552Z,13.64
2022-09-15T19:20:19.478Z,13.88
2022-09-15T19:22:46.297Z,14.22
2022-09-15T19:25:13.576Z,14.81
2022-09-15T19:27:40.525Z,14.53
2022-09-15T19:30:09.971Z,14.25
2022-09-15T19:32:38.327Z,14.50
2022-09-15T19:35:06.875Z,14.80
2022-09-15T19:37:38.164Z,14.49
2022-09-15T19:40:08.659Z,15.02
2022-09-15T19:42:39.522Z,15.15
2022-09-15T19:45:08.000Z,14.01
2022-09-15T19:47:35.289Z,14.12
2022-09-15T19:50:02.948Z,13.76
2022-09-15T19:52:29.586Z,13.87
2022-09-15T19:54:56.325Z,14.14
2022-09-15T19:57:23.731Z,14.25
2022-09-15T19:59:50.775Z,14.00
2022-09-15T20:02:17.601Z,13.63
2022-09-15T20:04:44.752Z,13.37
2022-09-15T20:07:12.453Z,13.28
2022-09-15T20:09:39.376Z,13.05
2022-09-15T20:12:06.490Z,12.94
2022-09-15T20:14:33.230Z,13.08
2022-09-15T20:17:01.258Z,13.05
2022-09-15T20:19:29.454Z,13.70
2022-09-15T20:21:56.223Z,13.63
2022-09-15T20:24:23.919Z,13.11
2022-09-15T20:26:51.539Z,12.97
2022-09-15T20:29:19.356Z,13.26
2022-09-15T20:31:46.388Z,12.84
2022-09-15T20:34:13.267Z,12.90
2022-09-15T20:36:40.154Z,12.82
2022-09-15T20:39:12.998Z,13.19
2022-09-15T20:41:41.697Z,13.21
2022-09-15T20:44:11.502Z,12.97
2022-09-15T20:46:38.391Z,13.35
2022-09-15T20:49:05.664Z,12.83
2022-09-15T20:51:33.771Z,12.75
2022-09-15T20:54:03.515Z,12.65
2022-09-15T20:56:34.594Z,12.70
2022-09-15T20:59:01.531Z,12.64
2022-09-15T21:01:34.096Z,12.62
2022-09-15T21:04:01.030Z,12.36
2022-09-15T21:06:28.694Z,12.24
2022-09-15T21:08:56.729Z,12.17
2022-09-15T21:11:24.962Z,12.15
2022-09-15T21:13:51.994Z,12.20
2022-09-15T21:16:22.025Z,12.27
2022-09-15T21:18:50.008Z,12.36
2022-09-15T21:21:30.102Z,12.37
2022-09-15T21:24:03.461Z,12.54
2022-09-15T21:26:56.862Z,12.97
2022-09-15T21:29:23.887Z,12.57
2022-09-15T21:31:50.890Z,12.88
2022-09-15T21:34:17.627Z,12.37
2022-09-15T21:36:44.207Z,12.57
2022-09-15T21:39:10.844Z,12.74
2022-09-15T21:41:37.520Z,12.57
2022-09-15T21:44:04.142Z,12.30
2022-09-15T21:46:31.873Z,12.20
2022-09-15T21:48:59.913Z,12.19
2022-09-15T21:51:29.279Z,11.93
2022-09-15T21:53:58.695Z,11.71
2022-09-15T21:56:27.817Z,11.62
2022-09-15T22:16:13.678Z,11.84
2022-09-15T22:34:58.468Z,12.71
2022-09-15T22:37:27.562Z,12.33
2022-09-15T22:40:01.341Z,12.50
2022-09-15T22:42:28.257Z,12.11
2022-09-15T22:44:54.887Z,11.95
2022-09-15T22:47:21.604Z,11.95
2022-09-15T22:49:48.249Z,11.62
2022-09-15T22:52:14.812Z,11.89
2022-09-15T22:54:41.455Z,12.09
2022-09-15T22:57:08.171Z,11.98
2022-09-15T22:59:34.741Z,12.31
2022-09-15T23:02:01.398Z,11.87
2022-09-15T23:04:28.155Z,11.80
2022-09-15T23:06:54.728Z,11.62
2022-09-15T23:09:21.323Z,11.31
2022-09-15T23:11:47.965Z,11.21
2022-09-15T23:14:16.805Z,11.12
2022-09-15T23:16:44.230Z,10.95
2022-09-15T23:19:14.418Z,11.16
2022-09-15T23:21:41.064Z,11.17
2022-09-15T23:24:08.664Z,11.11
2022-09-15T23:55:17.484Z,10.91
2022-09-15T23:57:44.069Z,11.03
